AUI131 UKBB-EPWA
Flight info
| Callsign | AUI131 |
|---|---|
| Flight time | 1h 15m |
| Altitude | 36000 |
| Route | KAFEL T731 OKROT M70 TOLPA/N0440F360 M70 SOMOX N191 LIMVI |
| Aircraft | B738/M-SDE2E3FGHIRWXY/LB1 |
Departure
| Time | 2026-05-04 07:33 |
|---|---|
| Airport | Boryspil International Airport (UKBB) |
Arrival
| Time | 2026-05-04 08:48 |
|---|---|
| Airport | Warsaw Chopin Airport (EPWA) |
| Time | Latitude | Longitude | Altitude | Speed | Heading |
|---|---|---|---|---|---|
| 2026-05-04 07:12 | 50.35379 | 30.90150 | 414 ft | 0 kts | 92° |
| 2026-05-04 07:24 | 50.35379 | 30.90143 | 414 ft | 4 kts | 92° |
| 2026-05-04 07:24 | 50.35381 | 30.90100 | 411 ft | 4 kts | 92° |
| 2026-05-04 07:24 | 50.35381 | 30.90060 | 407 ft | 3 kts | 86° |
| 2026-05-04 07:25 | 50.35379 | 30.90040 | 408 ft | 2 kts | 51° |
| 2026-05-04 07:26 | 50.35361 | 30.90029 | 161 ft | 0 kts | 1° |
| 2026-05-04 07:27 | 50.35369 | 30.90030 | 168 ft | 3 kts | 1° |
| 2026-05-04 07:27 | 50.35416 | 30.90035 | 411 ft | 10 kts | 14° |
| 2026-05-04 07:27 | 50.35458 | 30.90125 | 410 ft | 9 kts | 89° |
| 2026-05-04 07:28 | 50.35462 | 30.90231 | 414 ft | 11 kts | 68° |
| 2026-05-04 07:28 | 50.35535 | 30.90286 | 414 ft | 14 kts | 3° |
| 2026-05-04 07:28 | 50.35644 | 30.90292 | 411 ft | 17 kts | 2° |
| 2026-05-04 07:28 | 50.35774 | 30.90301 | 412 ft | 19 kts | 3° |
| 2026-05-04 07:29 | 50.35901 | 30.90312 | 407 ft | 16 kts | 2° |
| 2026-05-04 07:29 | 50.36004 | 30.90319 | 414 ft | 14 kts | 6° |
| 2026-05-04 07:29 | 50.36078 | 30.90404 | 411 ft | 14 kts | 62° |
| 2026-05-04 07:29 | 50.36077 | 30.90534 | 415 ft | 10 kts | 117° |
| 2026-05-04 07:30 | 50.36025 | 30.90606 | 418 ft | 11 kts | 155° |
| 2026-05-04 07:30 | 50.35946 | 30.90639 | 410 ft | 10 kts | 180° |
| 2026-05-04 07:30 | 50.35916 | 30.90637 | 418 ft | 1 kts | 182° |
| 2026-05-04 07:30 | 50.35845 | 30.90632 | 415 ft | 41 kts | 182° |
| 2026-05-04 07:31 | 50.35249 | 30.90588 | 418 ft | 126 kts | 182° |
| 2026-05-04 07:31 | 50.34213 | 30.90527 | 835 ft | 158 kts | 182° |
| 2026-05-04 07:33 | 50.28000 | 30.97152 | 6646 ft | 189 kts | 113° |
| 2026-05-04 07:33 | 50.27432 | 30.99104 | 7139 ft | 200 kts | 106° |
| 2026-05-04 07:33 | 50.27466 | 31.01320 | 7339 ft | 218 kts | 64° |
| 2026-05-04 07:33 | 50.28082 | 31.02607 | 7455 ft | 233 kts | 38° |
| 2026-05-04 07:34 | 50.29653 | 31.03511 | 7643 ft | 259 kts | 2° |
| 2026-05-04 07:34 | 50.31416 | 31.02661 | 8150 ft | 278 kts | 326° |
| 2026-05-04 07:34 | 50.32807 | 31.00552 | 9132 ft | 277 kts | 324° |
| 2026-05-04 07:34 | 50.34529 | 30.99314 | 9993 ft | 273 kts | 346° |
| 2026-05-04 07:35 | 50.36272 | 30.97923 | 10422 ft | 299 kts | 321° |
| 2026-05-04 07:35 | 50.37698 | 30.95348 | 10655 ft | 325 kts | 313° |
| 2026-05-04 07:35 | 50.39162 | 30.92560 | 11189 ft | 338 kts | 304° |
| 2026-05-04 07:35 | 50.39910 | 30.89022 | 11969 ft | 350 kts | 278° |
| 2026-05-04 07:36 | 50.39939 | 30.85186 | 12839 ft | 354 kts | 272° |
| 2026-05-04 07:36 | 50.39940 | 30.81287 | 13596 ft | 360 kts | 273° |
| 2026-05-04 07:38 | 50.40231 | 30.52832 | 18859 ft | 388 kts | 272° |
| 2026-05-04 07:38 | 50.40277 | 30.48579 | 19496 ft | 392 kts | 272° |
| 2026-05-04 07:38 | 50.40323 | 30.44286 | 20128 ft | 396 kts | 272° |
| 2026-05-04 07:38 | 50.40368 | 30.39937 | 20749 ft | 400 kts | 272° |
| 2026-05-04 07:39 | 50.40411 | 30.35555 | 21362 ft | 405 kts | 272° |
| 2026-05-04 07:39 | 50.40470 | 30.31117 | 21968 ft | 408 kts | 275° |
| 2026-05-04 07:39 | 50.40857 | 30.26706 | 22543 ft | 410 kts | 285° |
| 2026-05-04 07:39 | 50.41672 | 30.22407 | 23152 ft | 413 kts | 290° |
| 2026-05-04 07:40 | 50.42573 | 30.18109 | 23711 ft | 417 kts | 290° |
| 2026-05-04 07:40 | 50.43495 | 30.13776 | 24193 ft | 420 kts | 290° |
| 2026-05-04 07:40 | 50.44419 | 30.09407 | 24686 ft | 423 kts | 290° |
| 2026-05-04 07:40 | 50.45337 | 30.05004 | 25182 ft | 426 kts | 289° |
| 2026-05-04 07:41 | 50.46238 | 30.00625 | 25643 ft | 429 kts | 289° |
| 2026-05-04 07:41 | 50.47153 | 29.96140 | 26097 ft | 432 kts | 289° |
| 2026-05-04 07:41 | 50.48068 | 29.91626 | 26541 ft | 435 kts | 289° |
| 2026-05-04 07:41 | 50.48988 | 29.87071 | 26980 ft | 438 kts | 289° |
| 2026-05-04 07:42 | 50.49910 | 29.82488 | 27406 ft | 441 kts | 289° |
| 2026-05-04 07:42 | 50.50836 | 29.77878 | 27816 ft | 444 kts | 289° |
| 2026-05-04 07:42 | 50.51766 | 29.73235 | 28212 ft | 447 kts | 289° |
| 2026-05-04 07:42 | 50.52703 | 29.68552 | 28612 ft | 450 kts | 289° |
| 2026-05-04 07:43 | 50.53643 | 29.63842 | 29010 ft | 454 kts | 289° |
| 2026-05-04 07:43 | 50.54588 | 29.59092 | 29373 ft | 457 kts | 289° |
| 2026-05-04 07:43 | 50.55541 | 29.54296 | 29737 ft | 460 kts | 289° |
| 2026-05-04 07:43 | 50.56495 | 29.49480 | 30086 ft | 463 kts | 289° |
| 2026-05-04 07:44 | 50.57439 | 29.44699 | 30373 ft | 465 kts | 288° |
| 2026-05-04 07:44 | 50.58399 | 29.39830 | 30718 ft | 466 kts | 288° |
| 2026-05-04 07:44 | 50.59357 | 29.34959 | 31179 ft | 464 kts | 288° |
| 2026-05-04 07:44 | 50.60301 | 29.30118 | 31669 ft | 461 kts | 287° |
| 2026-05-04 07:45 | 50.60981 | 29.25186 | 32075 ft | 462 kts | 278° |
| 2026-05-04 07:45 | 50.61317 | 29.20168 | 32490 ft | 461 kts | 276° |
| 2026-05-04 07:45 | 50.61588 | 29.15138 | 32890 ft | 460 kts | 275° |
| 2026-05-04 07:45 | 50.61842 | 29.10116 | 33320 ft | 459 kts | 275° |
| 2026-05-04 07:46 | 50.62097 | 29.05115 | 33773 ft | 457 kts | 275° |
| 2026-05-04 07:46 | 50.62361 | 29.00141 | 34174 ft | 456 kts | 275° |
| 2026-05-04 07:46 | 50.62633 | 28.95173 | 34510 ft | 455 kts | 276° |
| 2026-05-04 07:46 | 50.62909 | 28.90225 | 34862 ft | 453 kts | 276° |
| 2026-05-04 07:47 | 50.63188 | 28.85287 | 35211 ft | 452 kts | 276° |
| 2026-05-04 07:47 | 50.63466 | 28.80370 | 35551 ft | 450 kts | 276° |
| 2026-05-04 07:47 | 50.63741 | 28.75461 | 35897 ft | 449 kts | 276° |
| 2026-05-04 07:49 | 50.65605 | 28.41036 | 36066 ft | 446 kts | 275° |
| 2026-05-04 07:49 | 50.66110 | 28.31345 | 36068 ft | 447 kts | 275° |
| 2026-05-04 07:50 | 50.66612 | 28.21579 | 36066 ft | 447 kts | 275° |
| 2026-05-04 07:50 | 50.67106 | 28.11791 | 36062 ft | 448 kts | 275° |
| 2026-05-04 07:51 | 50.67592 | 28.01993 | 36071 ft | 448 kts | 275° |
| 2026-05-04 07:51 | 50.68070 | 27.92191 | 36066 ft | 449 kts | 275° |
| 2026-05-04 07:52 | 50.68541 | 27.82384 | 36081 ft | 449 kts | 275° |
| 2026-05-04 07:52 | 50.69003 | 27.72558 | 36068 ft | 449 kts | 275° |
| 2026-05-04 07:54 | 50.70926 | 27.33310 | 36065 ft | 449 kts | 283° |
| 2026-05-04 07:55 | 50.72552 | 27.23825 | 36070 ft | 448 kts | 287° |
| 2026-05-04 07:55 | 50.74297 | 27.14394 | 36070 ft | 447 kts | 287° |
| 2026-05-04 07:56 | 50.76008 | 27.04944 | 36077 ft | 447 kts | 287° |
| 2026-05-04 07:56 | 50.77681 | 26.95481 | 36076 ft | 447 kts | 286° |
| 2026-05-04 07:57 | 50.79336 | 26.85996 | 36072 ft | 448 kts | 286° |
| 2026-05-04 07:57 | 50.80983 | 26.76506 | 36078 ft | 448 kts | 286° |
| 2026-05-04 07:58 | 50.82624 | 26.67003 | 36069 ft | 448 kts | 286° |
| 2026-05-04 07:58 | 50.84256 | 26.57503 | 36075 ft | 447 kts | 286° |
| 2026-05-04 07:59 | 50.85880 | 26.48005 | 36075 ft | 447 kts | 286° |
| 2026-05-04 07:59 | 50.87494 | 26.38504 | 36072 ft | 447 kts | 286° |
| 2026-05-04 08:00 | 50.89089 | 26.29068 | 36076 ft | 446 kts | 285° |
| 2026-05-04 08:02 | 50.95435 | 25.91007 | 36073 ft | 446 kts | 285° |
| 2026-05-04 08:02 | 50.96993 | 25.81526 | 36071 ft | 446 kts | 285° |
| 2026-05-04 08:03 | 50.98561 | 25.71933 | 36073 ft | 446 kts | 285° |
| 2026-05-04 08:03 | 51.00103 | 25.62454 | 36066 ft | 446 kts | 285° |
| 2026-05-04 08:04 | 51.01647 | 25.52901 | 36070 ft | 446 kts | 285° |
| 2026-05-04 08:04 | 51.03183 | 25.43343 | 36066 ft | 446 kts | 285° |
| 2026-05-04 08:05 | 51.04708 | 25.33799 | 36064 ft | 445 kts | 285° |
| 2026-05-04 08:05 | 51.06225 | 25.24249 | 36064 ft | 445 kts | 285° |
| 2026-05-04 08:06 | 51.07724 | 25.14761 | 36070 ft | 445 kts | 285° |
| 2026-05-04 08:06 | 51.09222 | 25.05220 | 36063 ft | 444 kts | 285° |
| 2026-05-04 08:08 | 51.15120 | 24.67109 | 36051 ft | 442 kts | 284° |
| 2026-05-04 08:11 | 51.21552 | 24.24494 | 36049 ft | 439 kts | 284° |
| 2026-05-04 08:11 | 51.23658 | 24.10286 | 36050 ft | 438 kts | 284° |
| 2026-05-04 08:12 | 51.25049 | 24.00825 | 36048 ft | 438 kts | 284° |
| 2026-05-04 08:12 | 51.26433 | 23.91361 | 36045 ft | 438 kts | 284° |
| 2026-05-04 08:13 | 51.27809 | 23.81891 | 36049 ft | 438 kts | 284° |
| 2026-05-04 08:13 | 51.29178 | 23.72418 | 36048 ft | 438 kts | 284° |
| 2026-05-04 08:14 | 51.30541 | 23.62928 | 36043 ft | 438 kts | 283° |
| 2026-05-04 08:16 | 51.35901 | 23.24847 | 33510 ft | 437 kts | 283° |
| 2026-05-04 08:16 | 51.36558 | 23.20115 | 33008 ft | 433 kts | 283° |
| 2026-05-04 08:16 | 51.37204 | 23.15447 | 32566 ft | 428 kts | 283° |
| 2026-05-04 08:17 | 51.37843 | 23.10817 | 32090 ft | 424 kts | 283° |
| 2026-05-04 08:17 | 51.38473 | 23.06237 | 31647 ft | 420 kts | 283° |
| 2026-05-04 08:17 | 51.39095 | 23.01692 | 31204 ft | 416 kts | 284° |
| 2026-05-04 08:17 | 51.39711 | 22.97185 | 30766 ft | 412 kts | 284° |
| 2026-05-04 08:19 | 51.43823 | 22.66742 | 27608 ft | 385 kts | 283° |
| 2026-05-04 08:19 | 51.44375 | 22.62612 | 27171 ft | 382 kts | 283° |
| 2026-05-04 08:20 | 51.44934 | 22.58415 | 26728 ft | 379 kts | 283° |
| 2026-05-04 08:20 | 51.45474 | 22.54360 | 26312 ft | 375 kts | 283° |
| 2026-05-04 08:20 | 51.46014 | 22.50275 | 25886 ft | 373 kts | 282° |
| 2026-05-04 08:20 | 51.46583 | 22.46239 | 25461 ft | 369 kts | 287° |
| 2026-05-04 08:21 | 51.47481 | 22.42402 | 25071 ft | 366 kts | 296° |
| 2026-05-04 08:21 | 51.48723 | 22.38867 | 24681 ft | 362 kts | 301° |
| 2026-05-04 08:21 | 51.50025 | 22.35423 | 24270 ft | 360 kts | 301° |
| 2026-05-04 08:21 | 51.51328 | 22.31999 | 23863 ft | 358 kts | 301° |
| 2026-05-04 08:22 | 51.52617 | 22.28583 | 23426 ft | 357 kts | 300° |
| 2026-05-04 08:22 | 51.53889 | 22.25174 | 22951 ft | 355 kts | 300° |
| 2026-05-04 08:24 | 51.61599 | 22.02657 | 20238 ft | 338 kts | 297° |
| 2026-05-04 08:24 | 51.62778 | 21.99404 | 19855 ft | 336 kts | 300° |
| 2026-05-04 08:24 | 51.64012 | 21.96215 | 19462 ft | 335 kts | 300° |
| 2026-05-04 08:24 | 51.65247 | 21.93046 | 19070 ft | 333 kts | 300° |
| 2026-05-04 08:25 | 51.66468 | 21.89884 | 18687 ft | 331 kts | 300° |
| 2026-05-04 08:25 | 51.67674 | 21.86731 | 18286 ft | 330 kts | 299° |
| 2026-05-04 08:25 | 51.69261 | 21.82545 | 17718 ft | 328 kts | 299° |
| 2026-05-04 08:25 | 51.70061 | 21.80426 | 17436 ft | 327 kts | 299° |
| 2026-05-04 08:26 | 51.71221 | 21.77343 | 17044 ft | 325 kts | 298° |
| 2026-05-04 08:27 | 51.84282 | 21.65742 | 14772 ft | 332 kts | 347° |
| 2026-05-04 08:28 | 51.86572 | 21.65116 | 14469 ft | 334 kts | 346° |
| 2026-05-04 08:28 | 51.88861 | 21.64477 | 14176 ft | 334 kts | 346° |
| 2026-05-04 08:28 | 51.91148 | 21.63826 | 13890 ft | 333 kts | 346° |
| 2026-05-04 08:28 | 51.93429 | 21.63171 | 13571 ft | 333 kts | 346° |
| 2026-05-04 08:29 | 51.95712 | 21.62514 | 13252 ft | 332 kts | 346° |
| 2026-05-04 08:29 | 51.97981 | 21.61860 | 12955 ft | 331 kts | 346° |
| 2026-05-04 08:29 | 52.00247 | 21.61209 | 12661 ft | 330 kts | 346° |
| 2026-05-04 08:31 | 52.15799 | 21.56731 | 10655 ft | 313 kts | 345° |
| 2026-05-04 08:33 | 52.20179 | 21.38425 | 8939 ft | 258 kts | 268° |
| 2026-05-04 08:33 | 52.20173 | 21.35525 | 8698 ft | 254 kts | 268° |
| 2026-05-04 08:35 | 52.16266 | 21.17512 | 7180 ft | 239 kts | 226° |
| 2026-05-04 08:35 | 52.14885 | 21.16042 | 6968 ft | 240 kts | 203° |
| 2026-05-04 08:35 | 52.13234 | 21.15614 | 6762 ft | 244 kts | 182° |
| 2026-05-04 08:35 | 52.11567 | 21.16275 | 6554 ft | 250 kts | 161° |
| 2026-05-04 08:37 | 52.02488 | 21.24261 | 5214 ft | 242 kts | 157° |
| 2026-05-04 08:37 | 52.00998 | 21.25560 | 5018 ft | 242 kts | 157° |
| 2026-05-04 08:37 | 51.99521 | 21.26838 | 4921 ft | 239 kts | 158° |
| 2026-05-04 08:38 | 51.98077 | 21.28079 | 4840 ft | 237 kts | 158° |
| 2026-05-04 08:38 | 51.96626 | 21.29329 | 4753 ft | 235 kts | 158° |
| 2026-05-04 08:38 | 51.95192 | 21.30561 | 4662 ft | 232 kts | 158° |
| 2026-05-04 08:40 | 51.86668 | 21.28412 | 4143 ft | 214 kts | 243° |
| 2026-05-04 08:40 | 51.86313 | 21.26094 | 4060 ft | 214 kts | 268° |
| 2026-05-04 08:40 | 51.86670 | 21.23750 | 3969 ft | 220 kts | 292° |
| 2026-05-04 08:41 | 51.87657 | 21.21851 | 3906 ft | 227 kts | 319° |
| 2026-05-04 08:41 | 51.89040 | 21.20545 | 3826 ft | 231 kts | 326° |
| 2026-05-04 08:41 | 51.90461 | 21.19331 | 3753 ft | 230 kts | 327° |
| 2026-05-04 08:41 | 51.91882 | 21.18133 | 3646 ft | 231 kts | 327° |
| 2026-05-04 08:42 | 51.93326 | 21.16992 | 3562 ft | 227 kts | 329° |
| 2026-05-04 08:42 | 51.94668 | 21.15909 | 3499 ft | 210 kts | 327° |
| 2026-05-04 08:42 | 51.95914 | 21.14843 | 3432 ft | 197 kts | 326° |
| 2026-05-04 08:42 | 51.97102 | 21.13798 | 3353 ft | 190 kts | 325° |
| 2026-05-04 08:43 | 51.98241 | 21.12802 | 3316 ft | 184 kts | 325° |
| 2026-05-04 08:43 | 51.99358 | 21.11822 | 3251 ft | 180 kts | 324° |
| 2026-05-04 08:43 | 52.00456 | 21.10869 | 3195 ft | 178 kts | 324° |
| 2026-05-04 08:43 | 52.01539 | 21.09919 | 3018 ft | 173 kts | 325° |
| 2026-05-04 08:44 | 52.02614 | 21.09068 | 3004 ft | 174 kts | 324° |
| 2026-05-04 08:44 | 52.03629 | 21.08028 | 2901 ft | 170 kts | 323° |
| 2026-05-04 08:46 | 52.10157 | 21.02427 | 1520 ft | 144 kts | 315° |
| 2026-05-04 08:46 | 52.10959 | 21.01556 | 1384 ft | 143 kts | 331° |
| 2026-05-04 08:46 | 52.11856 | 21.00907 | 1181 ft | 138 kts | 320° |
| 2026-05-04 08:46 | 52.12691 | 21.00094 | 1038 ft | 146 kts | 330° |
| 2026-05-04 08:47 | 52.13588 | 20.99341 | 819 ft | 142 kts | 323° |
| 2026-05-04 08:47 | 52.14476 | 20.98548 | 634 ft | 148 kts | 327° |
| 2026-05-04 08:47 | 52.15376 | 20.97760 | 422 ft | 145 kts | 326° |
| 2026-05-04 08:47 | 52.16216 | 20.97008 | 363 ft | 117 kts | 335° |
| 2026-05-04 08:48 | 52.16745 | 20.96559 | 361 ft | 48 kts | 332° |
| 2026-05-04 08:48 | 52.16905 | 20.96511 | 365 ft | 12 kts | 1° |
| 2026-05-04 08:48 | 52.16983 | 20.96513 | 360 ft | 11 kts | 1° |
| 2026-05-04 08:48 | 52.17058 | 20.96523 | 360 ft | 11 kts | 18° |
| 2026-05-04 08:49 | 52.17096 | 20.96591 | 363 ft | 7 kts | 61° |
| 2026-05-04 08:50 | 52.17123 | 20.96915 | 364 ft | 5 kts | 73° |
| 2026-05-04 08:50 | 52.17139 | 20.96973 | 362 ft | 6 kts | 65° |
| 2026-05-04 08:51 | 52.17152 | 20.97018 | 367 ft | 0 kts | 64° |